Relevés horaires Bierset (Belgique)


Relevés horaires à Bierset - Jeudi 28 Mai 2020
Heure UTC1 Température [°C] Vent [km/h] Hum. [%] Pres.4 [hPa] Visi. [Km] Nébu. [octa] Préc.5 [mm] Cond.
2m. Res. Ros. Dir.2 Vit. Moy. Raf.3
23:00 13.1 12.4 2.1 NE 9.3 9.3 13.0 47 1030(0.3/3h) 30 3/8 -- --
22:00 13.6 13.3 2.4 NE 7.4 7.4 9.3 47 1029.9(0.3/3h) 30 4/8 -- --
21:00 14.2 14.2 2.9 NNE 5.6 11.1 14.8 46 1029.8(0.0/3h) 30 3/8 -- --
20:00 15.8 15.8 1.7 NE 5.6 9.3 11.1 38 1029.5(-0.5/3h) 30 3/8 -- --
19:00 17.7 17.7 1.8 NE 9.3 11.1 14.8 34 1029.3(-1.0/3h) 30 3/8 -- --
18:00 19.1 19.1 1.2 NNE 11.1 13.0 20.4 30 1029.4(-1.2/3h) 30 0/8 0/12h
--
17:00 19.7 19.7 0.8 NE 11.1 11.1 18.5 28 1029.8(-1.0/3h) 30 0/8 -- --
16:00 20.2 20.2 1.4 NE 11.1 11.1 18.5 29 1030.1(-1.2/3h) 30 0/8 -- --
15:00 19.9 19.9 2.1 NE 11.1 0.0 0.0 31 1030.6(-1.0/3h) 25 1/8 -- --
14:00 20.2 20.2 3.2 NNE 9.3 13.0 20.4 32 1031.1(-1.3/3h) 30 1/8 -- --
13:00 19.9 19.9 2.3 ENE 11.1 13.0 22.2 31 1031.4(-1.5/3h) 30 1/8 -- --
12:00 19.7 19.7 2.9 NNE 11.1 13.0 20.4 33 1031.9(-1.2/3h) 30 1/8 0/6h
--
11:00 18.0 17.9 2.8 NE 13.0 13.0 20.4 36 1032.6(-0.9/3h) 25 0/8 -- --
10:00 16.8 16.5 3.0 NE 13.0 13.0 18.5 40 1033.2(-0.4/3h) 25 0/8 -- --
09:00 15.8 15.4 4.4 NE 11.1 13.0 18.5 47 1033.4(-0.2/3h) 25 0/8 -- --
08:00 13.9 13.1 6.3 NE 11.1 13.0 18.5 60 1033.8(-0.1/3h) 25 0/8 -- --
07:00 12.3 11.2 6.2 NE 11.1 11.1 16.7 66 1034(0.5/3h) 25 0/8 -- --
06:00 10.6 9.5 5.6 NE 9.3 11.1 14.8 71 1034.1(0.7/3h) 25 0/8 0.2/12h
--
05:00 9.5 8.2 4.9 NE 9.3 9.3 13.0 73 1034(0.5/3h) 25 1/8 -- --
04:00 9.1 8.1 3.7 NE 7.4 9.3 11.1 69 1033.7(0.3/3h) 25 1/8 -- --
03:00 10.5 9.7 4.0 NNE 7.4 9.3 11.1 64 1033.3(0.1/3h) 25 1/8 -- --
02:00 11.0 10.7 7.6 NNE 5.6 7.4 9.3 80 1033.3(0.1/3h) 25 1/8 -- --
01:00 11.5 11.3 8.3 N 5.6 5.6 9.3 81 1033.2(-0.3/3h) 25 1/8 -- --

1 Coordinated Universal Time. Actuellement il est 12:00 locale et 10:00 UTC.

2 Le vent souffle depuis la direction indiquée vers la direction oposée.

3 Les rafales max. sont disponible 40 min après l'heure du relevé.

4 Pour les stations d'altitude (plus de 600m) le géopotentiel du niveau le plus proche de la pression obligatoire est indiqué.

5 Les stations disposant d'un diffuseur peuvent indiquer "trace". Cela signifie que des précipitations ont touchés le sol mais que la quantité est inférieure à 0.1 mm.

Récapitulatif de la journée
Température [°C] Vent [km/h] Ensoleillement4 [h] Precipitations totale5 [mm] Pression [Hpa]
Min1 Max.2 Moy.3 Max. Min Max.
9.1 0.0 10.3 22.2 0 h 0 min 0 1029.3 1034.1

1 Température minimale relevée entre 18:00 UTC la veille et 18:00 UTC le jour donné.

2 Température maximale relevée entre 06:00 UTC le jour donné et 06:00 UTC le lendemain.

3 Vent moyen de la journée basé sur les relevés horaires.

4 Ensoleillement en heures relevé entre 06:00 UTC la veille et 06:00 UTC le jour donné.

5 Précipitations totales tombées entre 06:00 UTC la jour donné et 06:00 UTC le lendemain.

Graphiques horaires